sensor_id;sensor_type;location;lat;lon;timestamp;noise_LAeq;noise_LA_min;noise_LA_max;noise_LA01;noise_LA95
64642;Laerm;59936;51.490;5.436;2023-06-10T00:00:03;37.15;34.53;41.47;;
64642;Laerm;59936;51.490;5.436;2023-06-10T00:04:54;37.56;34.18;43.78;;
64642;Laerm;59936;51.490;5.436;2023-06-10T00:07:24;36.60;33.21;40.96;;
64642;Laerm;59936;51.490;5.436;2023-06-10T00:09:52;36.77;33.55;44.06;;
64642;Laerm;59936;51.490;5.436;2023-06-10T00:12:21;37.64;34.35;42.95;;
64642;Laerm;59936;51.490;5.436;2023-06-10T00:14:50;36.33;33.43;40.57;;
64642;Laerm;59936;51.490;5.436;2023-06-10T00:17:18;36.44;33.51;40.36;;
64642;Laerm;59936;51.490;5.436;2023-06-10T00:19:47;36.04;32.93;46.58;;
64642;Laerm;59936;51.490;5.436;2023-06-10T00:22:15;35.57;32.93;40.18;;
64642;Laerm;59936;51.490;5.436;2023-06-10T00:24:44;37.26;33.96;43.30;;
64642;Laerm;59936;51.490;5.436;2023-06-10T00:27:12;36.10;33.09;45.73;;
64642;Laerm;59936;51.490;5.436;2023-06-10T00:29:41;36.07;32.66;39.88;;
64642;Laerm;59936;51.490;5.436;2023-06-10T00:32:09;36.51;33.16;44.82;;
64642;Laerm;59936;51.490;5.436;2023-06-10T00:34:38;35.94;33.52;41.10;;
64642;Laerm;59936;51.490;5.436;2023-06-10T00:37:07;36.44;33.53;42.79;;
64642;Laerm;59936;51.490;5.436;2023-06-10T00:39:35;37.04;34.33;42.62;;
64642;Laerm;59936;51.490;5.436;2023-06-10T00:42:04;36.24;33.34;40.70;;
64642;Laerm;59936;51.490;5.436;2023-06-10T00:44:33;36.34;33.19;42.03;;
64642;Laerm;59936;51.490;5.436;2023-06-10T00:47:01;35.38;32.39;41.21;;
64642;Laerm;59936;51.490;5.436;2023-06-10T00:49:30;36.29;32.43;42.12;;
64642;Laerm;59936;51.490;5.436;2023-06-10T00:51:59;35.46;33.28;39.44;;
64642;Laerm;59936;51.490;5.436;2023-06-10T00:54:28;35.69;33.41;40.41;;
64642;Laerm;59936;51.490;5.436;2023-06-10T00:57:00;36.91;33.74;40.01;;
64642;Laerm;59936;51.490;5.436;2023-06-10T00:59:30;34.18;32.09;38.31;;
64642;Laerm;59936;51.490;5.436;2023-06-10T01:01:58;35.12;32.19;48.84;;
64642;Laerm;59936;51.490;5.436;2023-06-10T01:04:27;36.72;33.59;40.67;;
64642;Laerm;59936;51.490;5.436;2023-06-10T01:09:50;35.87;32.90;40.79;;
64642;Laerm;59936;51.490;5.436;2023-06-10T01:15:26;34.85;32.43;39.76;;
64642;Laerm;59936;51.490;5.436;2023-06-10T01:18:01;36.87;33.53;41.38;;
64642;Laerm;59936;51.490;5.436;2023-06-10T01:20:31;34.39;32.32;38.87;;
64642;Laerm;59936;51.490;5.436;2023-06-10T01:23:01;35.57;32.11;47.61;;
64642;Laerm;59936;51.490;5.436;2023-06-10T01:25:30;36.69;33.70;42.34;;
64642;Laerm;59936;51.490;5.436;2023-06-10T01:33:37;36.41;33.00;42.36;;
64642;Laerm;59936;51.490;5.436;2023-06-10T01:36:08;36.60;33.58;41.49;;
64642;Laerm;59936;51.490;5.436;2023-06-10T01:38:43;36.46;33.46;43.80;;
64642;Laerm;59936;51.490;5.436;2023-06-10T01:41:14;35.39;32.69;41.16;;
64642;Laerm;59936;51.490;5.436;2023-06-10T01:43:45;36.43;32.81;40.23;;
64642;Laerm;59936;51.490;5.436;2023-06-10T01:46:15;36.47;33.35;43.41;;
64642;Laerm;59936;51.490;5.436;2023-06-10T01:48:44;35.75;33.12;40.48;;
64642;Laerm;59936;51.490;5.436;2023-06-10T01:51:12;36.33;33.43;40.29;;
64642;Laerm;59936;51.490;5.436;2023-06-10T01:53:41;36.29;33.27;42.14;;
64642;Laerm;59936;51.490;5.436;2023-06-10T01:56:09;36.00;33.01;42.32;;
64642;Laerm;59936;51.490;5.436;2023-06-10T01:58:38;38.35;32.88;46.04;;
64642;Laerm;59936;51.490;5.436;2023-06-10T02:01:06;37.35;33.69;44.12;;
64642;Laerm;59936;51.490;5.436;2023-06-10T02:03:35;38.15;32.54;45.27;;
64642;Laerm;59936;51.490;5.436;2023-06-10T02:06:04;35.88;32.46;40.94;;
64642;Laerm;59936;51.490;5.436;2023-06-10T02:08:32;36.34;32.91;48.03;;
64642;Laerm;59936;51.490;5.436;2023-06-10T02:11:01;37.31;33.89;42.20;;
64642;Laerm;59936;51.490;5.436;2023-06-10T02:13:29;37.31;34.33;42.94;;
64642;Laerm;59936;51.490;5.436;2023-06-10T02:15:58;37.78;34.00;43.72;;
64642;Laerm;59936;51.490;5.436;2023-06-10T02:18:27;39.89;33.56;50.48;;
64642;Laerm;59936;51.490;5.436;2023-06-10T02:20:56;50.16;34.35;61.82;;
64642;Laerm;59936;51.490;5.436;2023-06-10T02:23:24;51.35;35.31;62.80;;
64642;Laerm;59936;51.490;5.436;2023-06-10T02:25:53;47.07;35.48;61.55;;
64642;Laerm;59936;51.490;5.436;2023-06-10T02:28:22;44.37;35.80;55.76;;
64642;Laerm;59936;51.490;5.436;2023-06-10T02:30:51;44.41;36.04;53.42;;
64642;Laerm;59936;51.490;5.436;2023-06-10T02:33:20;44.26;36.27;54.48;;
64642;Laerm;59936;51.490;5.436;2023-06-10T02:35:48;45.65;36.28;56.09;;
64642;Laerm;59936;51.490;5.436;2023-06-10T02:38:17;44.36;36.62;52.93;;
64642;Laerm;59936;51.490;5.436;2023-06-10T02:40:45;46.13;37.65;53.52;;
64642;Laerm;59936;51.490;5.436;2023-06-10T02:43:14;47.10;36.47;57.04;;
64642;Laerm;59936;51.490;5.436;2023-06-10T02:45:43;46.62;35.61;57.54;;
64642;Laerm;59936;51.490;5.436;2023-06-10T02:48:11;47.72;35.97;59.68;;
64642;Laerm;59936;51.490;5.436;2023-06-10T02:50:40;47.48;37.01;62.66;;
64642;Laerm;59936;51.490;5.436;2023-06-10T02:53:08;47.36;36.56;59.51;;
64642;Laerm;59936;51.490;5.436;2023-06-10T02:55:37;46.50;36.00;58.27;;
64642;Laerm;59936;51.490;5.436;2023-06-10T02:58:05;48.12;36.44;60.87;;
64642;Laerm;59936;51.490;5.436;2023-06-10T03:00:34;49.53;37.17;61.42;;
64642;Laerm;59936;51.490;5.436;2023-06-10T03:03:03;46.41;37.13;60.18;;
64642;Laerm;59936;51.490;5.436;2023-06-10T03:05:32;43.93;37.61;53.77;;
64642;Laerm;59936;51.490;5.436;2023-06-10T03:08:01;43.37;36.76;54.38;;
64642;Laerm;59936;51.490;5.436;2023-06-10T03:10:29;44.39;36.59;60.11;;
64642;Laerm;59936;51.490;5.436;2023-06-10T03:12:58;46.31;37.10;62.73;;
64642;Laerm;59936;51.490;5.436;2023-06-10T03:15:27;44.09;36.77;60.48;;
64642;Laerm;59936;51.490;5.436;2023-06-10T03:17:55;43.02;36.29;57.92;;
64642;Laerm;59936;51.490;5.436;2023-06-10T03:20:24;41.44;37.58;48.01;;
64642;Laerm;59936;51.490;5.436;2023-06-10T03:22:53;41.68;37.32;50.43;;
64642;Laerm;59936;51.490;5.436;2023-06-10T03:25:21;42.46;37.21;58.93;;
64642;Laerm;59936;51.490;5.436;2023-06-10T03:27:50;43.97;38.45;50.04;;
64642;Laerm;59936;51.490;5.436;2023-06-10T03:30:18;46.07;38.37;54.74;;
64642;Laerm;59936;51.490;5.436;2023-06-10T03:32:47;44.62;37.21;58.86;;
64642;Laerm;59936;51.490;5.436;2023-06-10T03:35:20;47.42;37.44;71.08;;
64642;Laerm;59936;51.490;5.436;2023-06-10T03:37:49;44.33;39.75;56.28;;
64642;Laerm;59936;51.490;5.436;2023-06-10T03:40:17;47.49;38.29;59.32;;
64642;Laerm;59936;51.490;5.436;2023-06-10T03:42:46;45.46;38.70;60.04;;
64642;Laerm;59936;51.490;5.436;2023-06-10T03:45:15;46.38;39.05;61.66;;
64642;Laerm;59936;51.490;5.436;2023-06-10T03:47:43;44.16;37.58;53.62;;
64642;Laerm;59936;51.490;5.436;2023-06-10T03:50:12;44.05;37.40;55.95;;
64642;Laerm;59936;51.490;5.436;2023-06-10T03:52:40;50.35;38.66;64.65;;
64642;Laerm;59936;51.490;5.436;2023-06-10T03:55:09;43.75;37.31;52.47;;
64642;Laerm;59936;51.490;5.436;2023-06-10T03:57:37;46.23;37.64;61.76;;
64642;Laerm;59936;51.490;5.436;2023-06-10T04:00:07;42.80;37.40;53.43;;
64642;Laerm;59936;51.490;5.436;2023-06-10T04:02:35;50.13;36.98;67.42;;
64642;Laerm;59936;51.490;5.436;2023-06-10T04:05:04;42.96;36.79;53.90;;
64642;Laerm;59936;51.490;5.436;2023-06-10T04:07:33;43.04;37.42;52.76;;
64642;Laerm;59936;51.490;5.436;2023-06-10T04:10:02;43.53;38.23;52.51;;
64642;Laerm;59936;51.490;5.436;2023-06-10T04:12:30;44.65;39.26;56.64;;
64642;Laerm;59936;51.490;5.436;2023-06-10T04:14:59;50.76;38.53;62.47;;
64642;Laerm;59936;51.490;5.436;2023-06-10T04:17:27;51.46;38.14;62.40;;
64642;Laerm;59936;51.490;5.436;2023-06-10T04:19:57;50.93;38.38;61.50;;
64642;Laerm;59936;51.490;5.436;2023-06-10T04:22:25;46.25;39.30;60.45;;
64642;Laerm;59936;51.490;5.436;2023-06-10T04:24:54;42.50;36.75;53.05;;
64642;Laerm;59936;51.490;5.436;2023-06-10T04:27:22;43.09;38.36;52.35;;
64642;Laerm;59936;51.490;5.436;2023-06-10T04:29:52;45.66;39.62;57.72;;
64642;Laerm;59936;51.490;5.436;2023-06-10T04:32:20;44.54;39.75;56.68;;
64642;Laerm;59936;51.490;5.436;2023-06-10T04:34:49;43.83;39.86;58.27;;
64642;Laerm;59936;51.490;5.436;2023-06-10T04:37:18;45.21;38.48;60.96;;
64642;Laerm;59936;51.490;5.436;2023-06-10T04:39:46;43.69;39.14;52.64;;
64642;Laerm;59936;51.490;5.436;2023-06-10T04:42:15;50.55;39.86;66.04;;
64642;Laerm;59936;51.490;5.436;2023-06-10T04:44:43;44.65;39.65;54.85;;
64642;Laerm;59936;51.490;5.436;2023-06-10T04:47:12;46.24;39.33;53.88;;
64642;Laerm;59936;51.490;5.436;2023-06-10T04:49:40;45.37;39.08;53.35;;
64642;Laerm;59936;51.490;5.436;2023-06-10T04:52:09;43.85;38.95;55.04;;
64642;Laerm;59936;51.490;5.436;2023-06-10T04:54:38;44.83;39.40;60.32;;
64642;Laerm;59936;51.490;5.436;2023-06-10T04:57:06;45.86;38.80;62.64;;
64642;Laerm;59936;51.490;5.436;2023-06-10T04:59:35;47.87;38.50;62.13;;
64642;Laerm;59936;51.490;5.436;2023-06-10T05:02:04;45.79;38.74;63.89;;
64642;Laerm;59936;51.490;5.436;2023-06-10T05:04:33;49.13;38.27;71.55;;
64642;Laerm;59936;51.490;5.436;2023-06-10T05:07:01;61.54;39.98;73.98;;
64642;Laerm;59936;51.490;5.436;2023-06-10T05:09:30;46.21;38.67;64.39;;
64642;Laerm;59936;51.490;5.436;2023-06-10T05:11:59;45.46;38.27;61.15;;
64642;Laerm;59936;51.490;5.436;2023-06-10T05:14:27;58.99;40.19;71.51;;
64642;Laerm;59936;51.490;5.436;2023-06-10T05:16:56;49.07;38.60;59.99;;
64642;Laerm;59936;51.490;5.436;2023-06-10T05:19:24;50.84;38.75;62.06;;
64642;Laerm;59936;51.490;5.436;2023-06-10T05:21:53;48.52;38.09;60.44;;
64642;Laerm;59936;51.490;5.436;2023-06-10T05:24:21;44.54;39.11;56.91;;
64642;Laerm;59936;51.490;5.436;2023-06-10T05:26:50;43.25;37.94;59.65;;
64642;Laerm;59936;51.490;5.436;2023-06-10T05:29:23;62.38;38.00;74.73;;
64642;Laerm;59936;51.490;5.436;2023-06-10T05:31:52;61.13;40.83;73.78;;
64642;Laerm;59936;51.490;5.436;2023-06-10T05:34:20;44.41;39.15;53.87;;
64642;Laerm;59936;51.490;5.436;2023-06-10T05:36:49;45.33;37.88;55.91;;
64642;Laerm;59936;51.490;5.436;2023-06-10T05:39:18;43.67;38.91;51.78;;
64642;Laerm;59936;51.490;5.436;2023-06-10T05:41:46;60.26;39.32;72.04;;
64642;Laerm;59936;51.490;5.436;2023-06-10T05:44:15;44.31;38.86;53.49;;
64642;Laerm;59936;51.490;5.436;2023-06-10T05:46:43;42.72;39.10;50.41;;
64642;Laerm;59936;51.490;5.436;2023-06-10T05:49:12;43.99;39.04;56.60;;
64642;Laerm;59936;51.490;5.436;2023-06-10T05:51:40;42.16;37.57;53.39;;
64642;Laerm;59936;51.490;5.436;2023-06-10T05:54:09;42.34;38.40;49.96;;
64642;Laerm;59936;51.490;5.436;2023-06-10T05:56:38;46.16;37.58;73.38;;
64642;Laerm;59936;51.490;5.436;2023-06-10T05:59:06;42.86;38.85;51.43;;
64642;Laerm;59936;51.490;5.436;2023-06-10T06:01:35;42.74;38.62;51.09;;
64642;Laerm;59936;51.490;5.436;2023-06-10T06:04:03;58.29;39.59;73.35;;
64642;Laerm;59936;51.490;5.436;2023-06-10T06:06:32;42.71;38.51;50.54;;
64642;Laerm;59936;51.490;5.436;2023-06-10T06:09:01;46.71;38.61;59.68;;
64642;Laerm;59936;51.490;5.436;2023-06-10T06:11:29;61.66;38.93;73.85;;
64642;Laerm;59936;51.490;5.436;2023-06-10T06:13:58;42.10;37.62;51.45;;
64642;Laerm;59936;51.490;5.436;2023-06-10T06:16:26;43.73;38.87;52.08;;
64642;Laerm;59936;51.490;5.436;2023-06-10T06:18:55;46.62;38.26;67.05;;
64642;Laerm;59936;51.490;5.436;2023-06-10T06:21:23;42.40;37.77;50.25;;
64642;Laerm;59936;51.490;5.436;2023-06-10T06:23:52;43.68;39.12;50.70;;
64642;Laerm;59936;51.490;5.436;2023-06-10T06:26:21;45.18;39.20;55.52;;
64642;Laerm;59936;51.490;5.436;2023-06-10T06:28:49;47.63;37.95;56.06;;
64642;Laerm;59936;51.490;5.436;2023-06-10T06:31:18;45.76;38.30;64.32;;
64642;Laerm;59936;51.490;5.436;2023-06-10T06:33:46;50.49;39.03;64.12;;
64642;Laerm;59936;51.490;5.436;2023-06-10T06:36:15;48.39;37.84;59.66;;
64642;Laerm;59936;51.490;5.436;2023-06-10T06:38:43;44.18;38.01;58.10;;
64642;Laerm;59936;51.490;5.436;2023-06-10T06:41:12;45.24;38.77;57.73;;
64642;Laerm;59936;51.490;5.436;2023-06-10T06:43:41;42.39;38.42;55.35;;
64642;Laerm;59936;51.490;5.436;2023-06-10T06:46:09;43.58;38.35;59.21;;
64642;Laerm;59936;51.490;5.436;2023-06-10T06:48:38;42.86;38.31;51.62;;
64642;Laerm;59936;51.490;5.436;2023-06-10T06:51:09;56.71;39.91;76.85;;
64642;Laerm;59936;51.490;5.436;2023-06-10T06:53:42;62.50;40.67;75.40;;
64642;Laerm;59936;51.490;5.436;2023-06-10T06:56:11;45.56;38.91;53.75;;
64642;Laerm;59936;51.490;5.436;2023-06-10T06:58:41;44.33;39.38;51.62;;
64642;Laerm;59936;51.490;5.436;2023-06-10T07:01:09;61.77;38.82;74.50;;
64642;Laerm;59936;51.490;5.436;2023-06-10T07:03:38;42.45;37.91;51.98;;
64642;Laerm;59936;51.490;5.436;2023-06-10T07:06:06;61.55;39.68;78.29;;
64642;Laerm;59936;51.490;5.436;2023-06-10T07:08:40;56.07;39.42;71.62;;
64642;Laerm;59936;51.490;5.436;2023-06-10T07:11:09;50.33;38.34;67.02;;
64642;Laerm;59936;51.490;5.436;2023-06-10T07:13:38;43.68;38.43;54.30;;
64642;Laerm;59936;51.490;5.436;2023-06-10T07:16:06;42.29;38.04;53.50;;
64642;Laerm;59936;51.490;5.436;2023-06-10T07:18:35;43.64;38.44;51.97;;
64642;Laerm;59936;51.490;5.436;2023-06-10T07:21:03;43.68;38.57;53.78;;
64642;Laerm;59936;51.490;5.436;2023-06-10T07:23:32;43.59;37.93;56.34;;
64642;Laerm;59936;51.490;5.436;2023-06-10T07:26:00;43.38;38.02;57.13;;
64642;Laerm;59936;51.490;5.436;2023-06-10T07:28:29;46.79;37.72;61.16;;
64642;Laerm;59936;51.490;5.436;2023-06-10T07:30:57;44.85;38.20;59.06;;
64642;Laerm;59936;51.490;5.436;2023-06-10T07:33:26;44.28;38.62;55.60;;
64642;Laerm;59936;51.490;5.436;2023-06-10T07:35:55;43.91;38.32;50.78;;
64642;Laerm;59936;51.490;5.436;2023-06-10T07:38:27;46.85;39.11;58.54;;
64642;Laerm;59936;51.490;5.436;2023-06-10T07:40:55;61.88;38.83;74.45;;
64642;Laerm;59936;51.490;5.436;2023-06-10T07:43:24;45.75;39.27;59.22;;
64642;Laerm;59936;51.490;5.436;2023-06-10T07:45:53;50.72;39.95;60.61;;
64642;Laerm;59936;51.490;5.436;2023-06-10T07:48:21;47.12;38.11;59.70;;
64642;Laerm;59936;51.490;5.436;2023-06-10T07:50:51;46.01;37.67;60.49;;
64642;Laerm;59936;51.490;5.436;2023-06-10T07:53:20;44.87;37.71;55.75;;
64642;Laerm;59936;51.490;5.436;2023-06-10T07:55:49;44.82;38.98;59.80;;
64642;Laerm;59936;51.490;5.436;2023-06-10T07:58:17;47.96;38.37;61.21;;
64642;Laerm;59936;51.490;5.436;2023-06-10T08:00:49;57.22;39.69;72.05;;
64642;Laerm;59936;51.490;5.436;2023-06-10T08:03:18;60.05;40.13;75.49;;
64642;Laerm;59936;51.490;5.436;2023-06-10T08:05:47;45.75;38.36;60.66;;
64642;Laerm;59936;51.490;5.436;2023-06-10T08:08:15;44.32;37.97;57.14;;
64642;Laerm;59936;51.490;5.436;2023-06-10T08:10:44;42.52;37.67;55.44;;
64642;Laerm;59936;51.490;5.436;2023-06-10T08:13:12;42.27;38.41;51.28;;
64642;Laerm;59936;51.490;5.436;2023-06-10T08:15:41;43.09;38.26;52.17;;
64642;Laerm;59936;51.490;5.436;2023-06-10T08:18:10;60.43;39.62;76.62;;
64642;Laerm;59936;51.490;5.436;2023-06-10T08:20:38;56.60;38.64;71.51;;
64642;Laerm;59936;51.490;5.436;2023-06-10T08:23:07;42.95;37.79;51.60;;
64642;Laerm;59936;51.490;5.436;2023-06-10T08:25:35;41.53;37.05;49.74;;
64642;Laerm;59936;51.490;5.436;2023-06-10T08:28:04;44.54;38.06;61.49;;
64642;Laerm;59936;51.490;5.436;2023-06-10T08:30:32;44.58;37.75;58.48;;
64642;Laerm;59936;51.490;5.436;2023-06-10T08:33:01;47.91;38.16;69.95;;
64642;Laerm;59936;51.490;5.436;2023-06-10T08:35:30;43.79;37.74;55.89;;
64642;Laerm;59936;51.490;5.436;2023-06-10T08:37:58;44.35;38.01;53.03;;
64642;Laerm;59936;51.490;5.436;2023-06-10T08:40:27;42.33;38.26;50.79;;
64642;Laerm;59936;51.490;5.436;2023-06-10T08:43:22;42.96;38.69;50.18;;
64642;Laerm;59936;51.490;5.436;2023-06-10T08:46:00;43.59;38.41;54.78;;
64642;Laerm;59936;51.490;5.436;2023-06-10T08:48:29;43.25;38.32;49.78;;
64642;Laerm;59936;51.490;5.436;2023-06-10T08:50:59;42.09;38.11;53.44;;
64642;Laerm;59936;51.490;5.436;2023-06-10T08:53:31;43.13;39.50;52.70;;
64642;Laerm;59936;51.490;5.436;2023-06-10T08:56:05;61.07;39.53;76.03;;
64642;Laerm;59936;51.490;5.436;2023-06-10T08:58:34;60.94;39.77;74.85;;
64642;Laerm;59936;51.490;5.436;2023-06-10T09:01:03;61.36;39.94;76.62;;
64642;Laerm;59936;51.490;5.436;2023-06-10T09:03:32;44.61;38.72;55.84;;
64642;Laerm;59936;51.490;5.436;2023-06-10T09:06:04;63.27;42.07;77.73;;
64642;Laerm;59936;51.490;5.436;2023-06-10T09:08:33;42.57;38.10;55.79;;
64642;Laerm;59936;51.490;5.436;2023-06-10T09:11:02;49.08;39.08;65.59;;
64642;Laerm;59936;51.490;5.436;2023-06-10T09:13:31;45.04;38.31;54.71;;
64642;Laerm;59936;51.490;5.436;2023-06-10T09:16:00;43.26;38.94;51.33;;
64642;Laerm;59936;51.490;5.436;2023-06-10T09:18:29;45.23;39.94;56.64;;
64642;Laerm;59936;51.490;5.436;2023-06-10T09:20:58;44.82;40.19;51.66;;
64642;Laerm;59936;51.490;5.436;2023-06-10T09:23:26;61.21;41.37;76.52;;
64642;Laerm;59936;51.490;5.436;2023-06-10T09:25:57;44.49;38.92;52.28;;
64642;Laerm;59936;51.490;5.436;2023-06-10T09:28:26;44.19;39.45;51.98;;
64642;Laerm;59936;51.490;5.436;2023-06-10T09:31:05;43.16;39.01;52.29;;
64642;Laerm;59936;51.490;5.436;2023-06-10T09:33:38;59.31;41.56;73.24;;
64642;Laerm;59936;51.490;5.436;2023-06-10T09:36:07;54.37;40.47;67.82;;
64642;Laerm;59936;51.490;5.436;2023-06-10T09:38:35;43.18;38.85;52.32;;
64642;Laerm;59936;51.490;5.436;2023-06-10T09:41:04;43.84;40.03;50.73;;
64642;Laerm;59936;51.490;5.436;2023-06-10T09:43:59;46.13;40.60;61.84;;
64642;Laerm;59936;51.490;5.436;2023-06-10T09:46:31;43.97;40.18;49.35;;
64642;Laerm;59936;51.490;5.436;2023-06-10T09:49:06;56.13;40.13;70.56;;
64642;Laerm;59936;51.490;5.436;2023-06-10T09:51:34;42.64;38.28;53.77;;
64642;Laerm;59936;51.490;5.436;2023-06-10T09:54:03;43.06;38.55;52.79;;
64642;Laerm;59936;51.490;5.436;2023-06-10T09:56:36;42.12;38.68;51.65;;
64642;Laerm;59936;51.490;5.436;2023-06-10T09:59:05;40.35;36.95;47.51;;
64642;Laerm;59936;51.490;5.436;2023-06-10T10:01:34;43.24;38.85;51.22;;
64642;Laerm;59936;51.490;5.436;2023-06-10T10:04:03;44.08;39.22;53.00;;
64642;Laerm;59936;51.490;5.436;2023-06-10T10:06:32;44.14;39.36;56.03;;
64642;Laerm;59936;51.490;5.436;2023-06-10T10:09:02;44.46;40.35;53.93;;
64642;Laerm;59936;51.490;5.436;2023-06-10T10:11:33;43.48;40.39;52.07;;
64642;Laerm;59936;51.490;5.436;2023-06-10T10:14:04;43.21;38.83;54.22;;
64642;Laerm;59936;51.490;5.436;2023-06-10T10:16:37;43.93;39.57;58.05;;
64642;Laerm;59936;51.490;5.436;2023-06-10T10:19:31;58.73;41.25;74.39;;
64642;Laerm;59936;51.490;5.436;2023-06-10T10:22:19;44.94;39.64;55.79;;
64642;Laerm;59936;51.490;5.436;2023-06-10T10:24:55;43.89;39.90;52.65;;
64642;Laerm;59936;51.490;5.436;2023-06-10T10:27:44;43.17;38.99;52.01;;
64642;Laerm;59936;51.490;5.436;2023-06-10T10:30:14;43.45;37.54;61.93;;
64642;Laerm;59936;51.490;5.436;2023-06-10T10:32:57;43.23;37.68;54.59;;
64642;Laerm;59936;51.490;5.436;2023-06-10T10:35:25;44.06;38.72;61.53;;
64642;Laerm;59936;51.490;5.436;2023-06-10T10:37:55;43.65;39.47;60.26;;
64642;Laerm;59936;51.490;5.436;2023-06-10T10:40:25;46.28;39.88;66.58;;
64642;Laerm;59936;51.490;5.436;2023-06-10T10:42:58;47.25;41.34;56.56;;
64642;Laerm;59936;51.490;5.436;2023-06-10T10:45:29;46.73;41.19;58.14;;
64642;Laerm;59936;51.490;5.436;2023-06-10T10:47:57;48.14;38.55;68.12;;
64642;Laerm;59936;51.490;5.436;2023-06-10T10:50:28;45.53;38.07;58.94;;
64642;Laerm;59936;51.490;5.436;2023-06-10T10:53:02;48.84;38.84;62.06;;
64642;Laerm;59936;51.490;5.436;2023-06-10T10:55:32;46.78;40.03;67.46;;
64642;Laerm;59936;51.490;5.436;2023-06-10T10:58:07;44.03;39.19;53.80;;
64642;Laerm;59936;51.490;5.436;2023-06-10T11:00:38;58.66;39.28;75.70;;
64642;Laerm;59936;51.490;5.436;2023-06-10T11:03:16;42.14;38.89;52.62;;
64642;Laerm;59936;51.490;5.436;2023-06-10T11:05:46;45.12;39.27;61.92;;
64642;Laerm;59936;51.490;5.436;2023-06-10T11:10:57;54.76;40.42;69.25;;
64642;Laerm;59936;51.490;5.436;2023-06-10T11:13:27;44.35;40.73;56.67;;
64642;Laerm;59936;51.490;5.436;2023-06-10T11:15:58;44.31;40.27;51.84;;
64642;Laerm;59936;51.490;5.436;2023-06-10T11:18:39;43.44;39.58;50.84;;
64642;Laerm;59936;51.490;5.436;2023-06-10T11:21:07;44.33;38.67;63.31;;
64642;Laerm;59936;51.490;5.436;2023-06-10T11:23:41;42.89;38.37;55.82;;
64642;Laerm;59936;51.490;5.436;2023-06-10T11:26:18;44.39;39.35;50.31;;
64642;Laerm;59936;51.490;5.436;2023-06-10T11:31:20;44.70;40.16;57.27;;
64642;Laerm;59936;51.490;5.436;2023-06-10T11:34:01;44.61;40.55;57.63;;
64642;Laerm;59936;51.490;5.436;2023-06-10T11:36:32;42.19;38.33;48.85;;
64642;Laerm;59936;51.490;5.436;2023-06-10T11:39:04;43.96;41.15;51.75;;
64642;Laerm;59936;51.490;5.436;2023-06-10T11:41:35;60.46;40.37;75.04;;
64642;Laerm;59936;51.490;5.436;2023-06-10T11:44:11;47.71;41.95;57.22;;
64642;Laerm;59936;51.490;5.436;2023-06-10T11:46:41;45.17;41.03;53.86;;
64642;Laerm;59936;51.490;5.436;2023-06-10T11:49:11;44.49;40.17;54.69;;
64642;Laerm;59936;51.490;5.436;2023-06-10T11:51:40;61.89;42.32;75.86;;
64642;Laerm;59936;51.490;5.436;2023-06-10T11:54:09;60.36;42.75;75.84;;
64642;Laerm;59936;51.490;5.436;2023-06-10T11:56:38;47.08;42.88;65.17;;
64642;Laerm;59936;51.490;5.436;2023-06-10T11:59:07;48.15;41.75;66.46;;
64642;Laerm;59936;51.490;5.436;2023-06-10T12:01:41;57.64;40.69;72.74;;
64642;Laerm;59936;51.490;5.436;2023-06-10T12:04:12;51.58;40.80;64.69;;
64642;Laerm;59936;51.490;5.436;2023-06-10T12:06:48;46.04;41.74;60.10;;
64642;Laerm;59936;51.490;5.436;2023-06-10T12:09:28;48.52;41.56;67.35;;
64642;Laerm;59936;51.490;5.436;2023-06-10T12:12:03;60.83;41.55;77.63;;
64642;Laerm;59936;51.490;5.436;2023-06-10T12:14:51;49.70;40.52;66.42;;
64642;Laerm;59936;51.490;5.436;2023-06-10T12:17:22;46.40;40.95;61.58;;
64642;Laerm;59936;51.490;5.436;2023-06-10T12:19:51;45.23;41.39;54.42;;
64642;Laerm;59936;51.490;5.436;2023-06-10T12:22:20;43.63;40.73;54.84;;
64642;Laerm;59936;51.490;5.436;2023-06-10T12:24:59;55.05;41.96;71.00;;
64642;Laerm;59936;51.490;5.436;2023-06-10T12:27:30;59.46;42.23;72.13;;
64642;Laerm;59936;51.490;5.436;2023-06-10T12:30:01;45.87;42.44;57.83;;
64642;Laerm;59936;51.490;5.436;2023-06-10T12:32:46;44.30;40.46;55.14;;
64642;Laerm;59936;51.490;5.436;2023-06-10T12:35:18;44.29;40.95;55.92;;
64642;Laerm;59936;51.490;5.436;2023-06-10T12:38:04;55.42;39.36;71.07;;
64642;Laerm;59936;51.490;5.436;2023-06-10T12:40:39;48.23;37.23;61.80;;
64642;Laerm;59936;51.490;5.436;2023-06-10T12:43:08;41.47;36.91;52.19;;
64642;Laerm;59936;51.490;5.436;2023-06-10T12:45:39;43.31;38.64;57.27;;
64642;Laerm;59936;51.490;5.436;2023-06-10T12:48:22;56.19;39.63;73.42;;
64642;Laerm;59936;51.490;5.436;2023-06-10T12:50:57;59.66;40.99;75.09;;
64642;Laerm;59936;51.490;5.436;2023-06-10T12:53:26;44.22;39.18;56.67;;
64642;Laerm;59936;51.490;5.436;2023-06-10T12:55:54;48.14;40.57;61.93;;
64642;Laerm;59936;51.490;5.436;2023-06-10T12:58:24;48.26;39.00;65.98;;
64642;Laerm;59936;51.490;5.436;2023-06-10T13:00:52;59.65;41.11;75.70;;
64642;Laerm;59936;51.490;5.436;2023-06-10T13:03:21;44.34;39.56;61.04;;
64642;Laerm;59936;51.490;5.436;2023-06-10T13:05:50;46.09;41.65;54.57;;
64642;Laerm;59936;51.490;5.436;2023-06-10T13:08:18;44.59;40.18;54.48;;
64642;Laerm;59936;51.490;5.436;2023-06-10T13:10:47;44.74;40.24;52.22;;
64642;Laerm;59936;51.490;5.436;2023-06-10T13:13:15;43.47;39.95;53.38;;
64642;Laerm;59936;51.490;5.436;2023-06-10T13:15:44;43.57;39.52;52.85;;
64642;Laerm;59936;51.490;5.436;2023-06-10T13:18:12;43.39;40.06;53.99;;
64642;Laerm;59936;51.490;5.436;2023-06-10T13:20:44;49.47;39.55;69.02;;
64642;Laerm;59936;51.490;5.436;2023-06-10T13:23:13;47.29;37.77;69.19;;
64642;Laerm;59936;51.490;5.436;2023-06-10T13:25:41;42.87;38.15;49.19;;
64642;Laerm;59936;51.490;5.436;2023-06-10T13:28:10;44.53;39.76;53.95;;
64642;Laerm;59936;51.490;5.436;2023-06-10T13:30:39;45.20;38.73;57.82;;
64642;Laerm;59936;51.490;5.436;2023-06-10T13:33:07;50.08;37.97;70.83;;
64642;Laerm;59936;51.490;5.436;2023-06-10T13:35:36;49.98;37.81;66.31;;
64642;Laerm;59936;51.490;5.436;2023-06-10T13:38:04;56.58;38.71;71.70;;
64642;Laerm;59936;51.490;5.436;2023-06-10T13:40:33;51.17;38.80;69.30;;
64642;Laerm;59936;51.490;5.436;2023-06-10T13:43:02;51.27;39.65;65.63;;
64642;Laerm;59936;51.490;5.436;2023-06-10T13:45:35;52.57;37.48;73.15;;
64642;Laerm;59936;51.490;5.436;2023-06-10T13:48:04;51.45;37.83;66.63;;
64642;Laerm;59936;51.490;5.436;2023-06-10T13:50:33;48.20;38.52;68.93;;
64642;Laerm;59936;51.490;5.436;2023-06-10T13:53:01;43.06;37.83;57.84;;
64642;Laerm;59936;51.490;5.436;2023-06-10T13:55:30;44.14;39.43;62.43;;
64642;Laerm;59936;51.490;5.436;2023-06-10T13:57:58;43.57;39.70;54.40;;
64642;Laerm;59936;51.490;5.436;2023-06-10T14:00:28;44.41;38.09;56.98;;
64642;Laerm;59936;51.490;5.436;2023-06-10T14:02:57;58.80;40.45;73.94;;
64642;Laerm;59936;51.490;5.436;2023-06-10T14:05:25;56.67;39.15;68.84;;
64642;Laerm;59936;51.490;5.436;2023-06-10T14:07:54;43.67;38.23;59.59;;
64642;Laerm;59936;51.490;5.436;2023-06-10T14:10:22;41.89;38.05;48.88;;
64642;Laerm;59936;51.490;5.436;2023-06-10T14:12:51;41.64;37.74;50.33;;
64642;Laerm;59936;51.490;5.436;2023-06-10T14:15:20;41.95;37.89;48.25;;
64642;Laerm;59936;51.490;5.436;2023-06-10T14:17:48;45.80;41.28;52.77;;